Terminal Aerodrome Forecast
Issued by NWS

Home | Current Version | Previous Version | Text Only | Print | Product List | Glossary On
Versions: 1 2 3 4 5 6 7 8 9 10 11 12 13 14 15 16 17 18
000
FTUS43 KPAH 231450 AAA
TAFOWB
TAF AMD
KOWB 231450Z 2315/2412 13008KT P6SM BKN100
      TEMPO 2315/2319 5SM -SHRA BR BKN050
     FM240200 17012G20KT P6SM BKN200
     FM241000 18012G20KT P6SM SCT015=

USA.gov is the U.S. government's official web portal to all federal, state and local government web resources and services.